Time;durP1;ratioP1;P1;durP2;ratioP2;P2;SDS_P1;SDS_P2;PMS_P1;PMS_P2;Temp;Humidity;BMP_temperature;BMP_pressure;BME280_temperature;BME280_humidity;BME280_pressure;Samples;Min_cycle;Max_cycle;Signal;HPM_P1;HPM_P2
2023/08/20 00:00:27;;;;;;;10.73;10.03;;;25.10;37.20;;;;;;5137906;27;20497;-59
2023/08/20 00:03:10;;;;;;;13.40;12.30;;;25.10;37.50;;;;;;5137800;27;20627;-59
2023/08/20 00:05:36;;;;;;;12.10;11.30;;;25.10;37.50;;;;;;5137822;27;20788;-58
2023/08/20 00:08:02;;;;;;;11.77;10.90;;;25.10;38.50;;;;;;5137449;27;20902;-58
2023/08/20 00:10:28;;;;;;;12.33;11.33;;;25.00;37.90;;;;;;5137575;27;20414;-57
2023/08/20 00:12:53;;;;;;;11.87;10.87;;;25.00;38.00;;;;;;5137612;27;20176;-59
2023/08/20 00:15:19;;;;;;;11.00;10.17;;;25.00;38.10;;;;;;5137602;27;20541;-59
2023/08/20 00:17:46;;;;;;;15.13;11.47;;;25.00;38.30;;;;;;5137339;27;20172;-59
2023/08/20 00:20:14;;;;;;;11.90;11.10;;;25.00;38.20;;;;;;5137423;27;20910;-62
2023/08/20 00:22:42;;;;;;;10.80;9.90;;;25.00;38.40;;;;;;5137291;27;20402;-61
2023/08/20 00:25:08;;;;;;;12.43;11.13;;;25.00;38.40;;;;;;5137456;27;20410;-63
2023/08/20 00:27:34;;;;;;;11.80;10.17;;;25.00;38.50;;;;;;5137191;27;20993;-61
2023/08/20 00:30:00;;;;;;;11.73;10.90;;;24.90;38.60;;;;;;5137305;27;20402;-62
2023/08/20 00:32:25;;;;;;;13.40;12.40;;;24.90;38.70;;;;;;5137194;27;20724;-61
2023/08/20 00:34:51;;;;;;;11.50;10.70;;;24.90;38.90;;;;;;5137155;27;20563;-61
2023/08/20 00:37:17;;;;;;;10.60;9.80;;;24.90;38.90;;;;;;5137060;27;20212;-61
2023/08/20 00:39:43;;;;;;;12.90;11.70;;;24.90;38.90;;;;;;5136853;27;20191;-61
2023/08/20 00:42:08;;;;;;;12.20;11.30;;;24.90;39.00;;;;;;5137010;27;20421;-61
2023/08/20 00:44:35;;;;;;;12.40;11.30;;;24.90;39.10;;;;;;5137282;27;20184;-61
2023/08/20 00:47:05;;;;;;;10.73;9.93;;;24.90;39.20;;;;;;5136902;27;20180;-61
2023/08/20 00:49:32;;;;;;;11.93;10.80;;;24.90;39.30;;;;;;5136594;27;20447;-62
2023/08/20 00:51:59;;;;;;;11.10;10.30;;;24.90;39.40;;;;;;5136864;27;20505;-61
2023/08/20 00:54:26;;;;;;;11.93;10.90;;;24.90;40.00;;;;;;5136822;27;20509;-62
2023/08/20 00:56:52;;;;;;;10.60;9.90;;;24.80;39.30;;;;;;5136756;27;21052;-61
2023/08/20 00:59:17;;;;;;;13.43;12.40;;;24.80;39.30;;;;;;5136503;27;20406;-61
2023/08/20 01:01:43;;;;;;;11.60;10.70;;;24.90;39.40;;;;;;5136539;27;20474;-61
2023/08/20 01:04:09;;;;;;;11.70;10.90;;;24.80;39.30;;;;;;5136611;27;20169;-61
2023/08/20 01:06:49;;;;;;;11.63;10.50;;;24.80;39.20;;;;;;5136541;27;20735;-60
2023/08/20 01:09:35;;;;;;;12.87;11.77;;;24.80;39.30;;;;;;5136455;27;20176;-60
2023/08/20 01:12:03;;;;;;;13.07;12.17;;;24.80;39.10;;;;;;5136490;27;20409;-62
2023/08/20 01:14:28;;;;;;;14.00;12.90;;;24.80;39.20;;;;;;5136297;27;20454;-59
2023/08/20 01:16:54;;;;;;;12.97;11.80;;;24.80;39.30;;;;;;5136394;27;20427;-58
2023/08/20 01:19:21;;;;;;;13.50;12.60;;;24.80;39.40;;;;;;5136221;27;20291;-58
2023/08/20 01:21:56;;;;;;;11.17;10.40;;;24.80;39.40;;;;;;5136239;27;20260;-59
2023/08/20 01:24:41;;;;;;;11.43;10.40;;;24.80;39.70;;;;;;5136294;27;20935;-58
2023/08/20 01:27:06;;;;;;;11.80;10.97;;;24.80;39.70;;;;;;5136181;27;20408;-59
2023/08/20 01:29:32;;;;;;;12.90;12.00;;;24.70;40.00;;;;;;5136025;27;20406;-59
2023/08/20 01:31:59;;;;;;;12.87;11.87;;;24.70;40.30;;;;;;5136453;27;20705;-59
2023/08/20 01:34:26;;;;;;;12.60;11.60;;;24.70;40.00;;;;;;5135718;27;20453;-61
2023/08/20 01:36:52;;;;;;;12.70;11.80;;;24.70;40.20;;;;;;5136056;27;20398;-62
2023/08/20 01:39:18;;;;;;;12.60;11.60;;;24.70;40.10;;;;;;5135842;27;20416;-59
2023/08/20 01:41:44;;;;;;;13.10;11.80;;;24.70;40.10;;;;;;5135934;27;20215;-58
2023/08/20 01:44:10;;;;;;;11.80;10.90;;;24.70;40.20;;;;;;5135964;27;20842;-59
2023/08/20 01:46:35;;;;;;;13.07;11.70;;;24.70;40.20;;;;;;5136081;27;20208;-58
2023/08/20 01:49:01;;;;;;;11.50;10.40;;;24.60;40.50;;;;;;5135506;27;20180;-58
2023/08/20 01:51:27;;;;;;;11.53;10.53;;;24.60;40.50;;;;;;5135798;27;20177;-58
2023/08/20 01:53:52;;;;;;;12.47;11.37;;;24.60;40.70;;;;;;5135592;27;20785;-58
2023/08/20 01:56:18;;;;;;;11.87;10.97;;;24.60;40.70;;;;;;5135800;27;20196;-58
2023/08/20 01:58:43;;;;;;;11.30;10.37;;;24.60;40.50;;;;;;5135454;27;20558;-59
2023/08/20 02:01:09;;;;;;;13.60;12.53;;;24.60;40.60;;;;;;5135630;27;20510;-58
2023/08/20 02:03:37;;;;;;;13.47;12.50;;;24.60;40.80;;;;;;5135374;27;20620;-58
2023/08/20 02:06:03;;;;;;;12.93;11.93;;;24.60;41.10;;;;;;5135478;27;20180;-58
2023/08/20 02:08:28;;;;;;;12.90;11.93;;;24.50;41.00;;;;;;5135180;27;20410;-57
2023/08/20 02:11:04;;;;;;;12.43;11.10;;;24.50;41.20;;;;;;5135414;27;20259;-57
2023/08/20 02:13:30;;;;;;;12.20;11.47;;;24.50;41.40;;;;;;5135098;27;20221;-58
2023/08/20 02:16:03;;;;;;;13.23;12.30;;;24.50;41.60;;;;;;5135328;27;20413;-58
2023/08/20 02:18:30;;;;;;;14.60;13.57;;;24.50;41.50;;;;;;5153631;27;20421;-59
2023/08/20 02:20:56;;;;;;;13.03;12.23;;;24.50;41.30;;;;;;5135135;27;20488;-58
2023/08/20 02:23:22;;;;;;;12.17;11.27;;;24.50;41.50;;;;;;5135232;27;20438;-58
2023/08/20 02:25:48;;;;;;;12.93;12.13;;;24.50;41.70;;;;;;5135289;27;20272;-58
2023/08/20 02:28:13;;;;;;;13.67;12.77;;;24.50;41.80;;;;;;5134991;27;20415;-58
2023/08/20 02:30:41;;;;;;;13.90;12.60;;;24.40;41.70;;;;;;5135128;27;20444;-57
2023/08/20 02:33:07;;;;;;;12.40;11.40;;;24.50;42.40;;;;;;5135101;27;20203;-59
2023/08/20 02:35:32;;;;;;;12.87;11.43;;;24.40;41.70;;;;;;5134884;27;20489;-57
2023/08/20 02:37:58;;;;;;;12.37;11.37;;;24.40;41.80;;;;;;5134905;27;20202;-58
2023/08/20 02:40:23;;;;;;;14.90;13.70;;;24.40;42.10;;;;;;5135040;27;20169;-58
2023/08/20 02:42:49;;;;;;;13.27;12.37;;;24.40;42.10;;;;;;5135028;27;20165;-58
2023/08/20 02:45:15;;;;;;;13.40;12.17;;;24.40;42.10;;;;;;5135784;27;20176;-58
2023/08/20 02:47:40;;;;;;;13.37;12.17;;;24.40;42.00;;;;;;5139224;27;20168;-58
2023/08/20 02:50:06;;;;;;;12.50;11.60;;;24.40;41.80;;;;;;5157536;27;20211;-58
2023/08/20 02:52:32;;;;;;;13.33;12.43;;;24.30;41.80;;;;;;5139313;27;20641;-58
2023/08/20 02:54:57;;;;;;;12.57;11.63;;;24.30;42.00;;;;;;5139040;27;20975;-58
2023/08/20 02:57:23;;;;;;;14.33;13.27;;;24.30;42.10;;;;;;5139195;27;20175;-58
2023/08/20 02:59:49;;;;;;;14.30;13.00;;;24.30;42.50;;;;;;5138904;27;20230;-58
2023/08/20 03:02:14;;;;;;;14.47;13.20;;;24.20;42.50;;;;;;5139090;27;20173;-61
2023/08/20 03:04:40;;;;;;;14.50;13.50;;;24.30;42.50;;;;;;5138991;27;20173;-60
2023/08/20 03:07:06;;;;;;;14.73;13.53;;;24.20;42.40;;;;;;5139041;27;20177;-62
2023/08/20 03:09:31;;;;;;;13.50;12.60;;;24.20;42.60;;;;;;5138683;27;20232;-61
2023/08/20 03:11:57;;;;;;;14.93;13.93;;;24.20;42.60;;;;;;5138910;27;20176;-60
2023/08/20 03:14:23;;;;;;;15.50;14.50;;;24.20;42.60;;;;;;5138704;27;20196;-60
2023/08/20 03:16:48;;;;;;;15.80;14.70;;;24.20;42.50;;;;;;5138813;27;20176;-58
2023/08/20 03:19:16;;;;;;;15.33;14.27;;;24.20;42.30;;;;;;5138508;27;20169;-60
2023/08/20 03:21:41;;;;;;;15.47;13.73;;;24.20;42.20;;;;;;5138655;27;20165;-60
2023/08/20 03:24:07;;;;;;;14.27;12.60;;;24.20;42.30;;;;;;5138692;27;20436;-61
2023/08/20 03:26:33;;;;;;;13.70;12.53;;;24.20;42.30;;;;;;5138581;27;20186;-61
2023/08/20 03:28:59;;;;;;;13.43;12.53;;;24.20;42.30;;;;;;5138496;27;20409;-61
2023/08/20 03:31:25;;;;;;;13.13;12.23;;;24.20;42.30;;;;;;5138636;27;20168;-61
2023/08/20 03:33:50;;;;;;;14.83;13.93;;;24.20;42.30;;;;;;5138309;27;20540;-61
2023/08/20 03:36:16;;;;;;;16.20;14.90;;;24.10;42.40;;;;;;5138515;27;20169;-62
2023/08/20 03:38:42;;;;;;;16.37;15.00;;;24.10;42.50;;;;;;5138219;27;20575;-60
2023/08/20 03:41:08;;;;;;;16.40;15.23;;;24.10;42.60;;;;;;5138340;27;20176;-58
2023/08/20 03:43:33;;;;;;;15.20;14.00;;;24.10;42.80;;;;;;5138170;27;20313;-62
2023/08/20 03:46:01;;;;;;;15.57;14.47;;;24.10;42.80;;;;;;5121157;27;20200;-58
2023/08/20 03:48:26;;;;;;;15.60;14.40;;;24.10;42.90;;;;;;5137901;27;20168;-58
2023/08/20 03:50:52;;;;;;;15.40;13.90;;;24.10;43.10;;;;;;5138060;27;20520;-58
2023/08/20 03:53:17;;;;;;;12.77;11.80;;;24.10;42.90;;;;;;5138183;27;20317;-58
2023/08/20 03:55:51;;;;;;;14.00;12.90;;;24.10;43.10;;;;;;5137489;27;20211;-58
2023/08/20 03:58:16;;;;;;;14.47;13.50;;;24.00;43.00;;;;;;5137884;27;20625;-58
2023/08/20 04:00:43;;;;;;;15.70;14.60;;;24.00;43.00;;;;;;5137843;27;20421;-58
2023/08/20 04:03:08;;;;;;;15.13;13.80;;;24.00;42.90;;;;;;5137790;27;20263;-58
2023/08/20 04:05:37;;;;;;;14.10;13.10;;;24.00;43.20;;;;;;5137866;27;20513;-58
2023/08/20 04:08:04;;;;;;;14.07;13.07;;;24.00;43.10;;;;;;5137598;27;20169;-58
2023/08/20 04:10:31;;;;;;;16.23;15.13;;;23.90;43.70;;;;;;5137622;27;20513;-58
2023/08/20 04:12:56;;;;;;;15.43;14.33;;;23.90;43.70;;;;;;5137755;27;20496;-58
2023/08/20 04:15:22;;;;;;;15.00;13.90;;;23.90;43.70;;;;;;5137475;27;20544;-58
2023/08/20 04:17:48;;;;;;;15.80;14.60;;;23.90;43.70;;;;;;5137393;27;20177;-58
2023/08/20 04:20:14;;;;;;;14.50;13.20;;;23.90;43.70;;;;;;5137459;27;20168;-58
2023/08/20 04:22:40;;;;;;;15.33;14.23;;;23.90;43.70;;;;;;5137645;27;20406;-58
2023/08/20 04:25:06;;;;;;;14.73;13.73;;;23.90;43.70;;;;;;5137782;27;20172;-58
2023/08/20 04:27:32;;;;;;;15.60;14.40;;;23.90;43.70;;;;;;5137716;27;20545;-62
2023/08/20 04:29:57;;;;;;;16.00;14.90;;;23.90;43.70;;;;;;5137497;27;20410;-61
2023/08/20 04:32:23;;;;;;;15.50;14.50;;;23.90;43.70;;;;;;5137870;27;20173;-62
2023/08/20 04:34:51;;;;;;;15.70;14.70;;;23.90;43.80;;;;;;5137415;27;20228;-62
2023/08/20 04:37:19;;;;;;;14.50;13.37;;;23.90;43.70;;;;;;5137677;27;20180;-62
2023/08/20 04:39:44;;;;;;;15.27;14.17;;;23.90;43.70;;;;;;5137117;27;20444;-62
2023/08/20 04:42:10;;;;;;;15.50;14.50;;;23.90;43.70;;;;;;5137440;27;20410;-62
2023/08/20 04:44:35;;;;;;;14.40;13.30;;;23.90;43.70;;;;;;5137417;27;20180;-62
2023/08/20 04:47:01;;;;;;;16.17;14.97;;;23.90;43.40;;;;;;5137183;27;20169;-62
2023/08/20 04:49:28;;;;;;;15.53;14.60;;;23.90;43.70;;;;;;5137146;27;20291;-62
2023/08/20 04:51:54;;;;;;;17.50;16.17;;;23.90;43.70;;;;;;5137179;27;20565;-58
2023/08/20 04:54:20;;;;;;;15.50;14.30;;;23.90;43.60;;;;;;5137307;27;20454;-58
2023/08/20 04:56:45;;;;;;;16.40;15.30;;;23.80;43.70;;;;;;5137189;27;20417;-58
2023/08/20 04:59:11;;;;;;;16.97;15.60;;;23.90;43.70;;;;;;5136873;27;20173;-58
2023/08/20 05:01:38;;;;;;;16.33;15.23;;;23.80;43.70;;;;;;5136853;27;20183;-61
2023/08/20 05:04:04;;;;;;;16.47;15.23;;;23.90;43.70;;;;;;5137068;27;20424;-53
2023/08/20 05:06:29;;;;;;;16.57;15.40;;;23.90;43.70;;;;;;5136971;27;20417;-58
2023/08/20 05:08:55;;;;;;;15.37;14.30;;;23.90;43.70;;;;;;5135921;27;20285;-58
2023/08/20 05:11:20;;;;;;;16.40;15.20;;;23.90;43.70;;;;;;5136930;27;20235;-59
2023/08/20 05:13:49;;;;;;;15.70;14.60;;;23.90;43.70;;;;;;5136857;27;20180;-59
2023/08/20 05:16:14;;;;;;;17.93;16.70;;;23.90;43.70;;;;;;5136877;27;20177;-58
2023/08/20 05:18:40;;;;;;;14.10;12.77;;;23.90;43.70;;;;;;5136555;27;20743;-59
2023/08/20 05:21:06;;;;;;;15.43;14.43;;;23.90;43.40;;;;;;5136723;27;20180;-59
2023/08/20 05:23:31;;;;;;;15.87;14.90;;;23.90;43.70;;;;;;5136686;27;20647;-58
2023/08/20 05:25:57;;;;;;;16.40;15.00;;;23.90;43.70;;;;;;5136643;27;20172;-58
2023/08/20 05:28:24;;;;;;;15.73;14.63;;;23.80;43.70;;;;;;5136434;27;20173;-59
2023/08/20 05:30:56;;;;;;;16.40;15.20;;;23.80;43.70;;;;;;5153234;27;20589;-61
2023/08/20 05:33:23;;;;;;;15.90;14.83;;;23.80;43.70;;;;;;5134189;27;20409;-61
2023/08/20 05:35:49;;;;;;;17.17;15.97;;;23.80;43.60;;;;;;5133877;27;20492;-61
2023/08/20 05:38:15;;;;;;;17.50;16.40;;;23.80;43.70;;;;;;5133814;27;20914;-62
2023/08/20 05:40:41;;;;;;;16.77;15.57;;;23.80;43.70;;;;;;5133969;27;20443;-60
2023/08/20 05:43:07;;;;;;;15.70;14.63;;;23.80;43.70;;;;;;5133912;27;20417;-60
2023/08/20 05:45:32;;;;;;;16.70;15.33;;;23.70;43.80;;;;;;5133872;27;20173;-60
2023/08/20 05:47:58;;;;;;;15.73;14.50;;;23.80;44.10;;;;;;5153755;27;20466;-61
2023/08/20 05:50:24;;;;;;;16.10;15.10;;;23.80;44.00;;;;;;5154325;27;20216;-61
2023/08/20 05:52:49;;;;;;;16.17;15.27;;;23.70;44.20;;;;;;5135744;27;20176;-61
2023/08/20 05:55:15;;;;;;;15.70;14.47;;;23.80;44.50;;;;;;5135915;27;20683;-61
2023/08/20 05:57:42;;;;;;;16.03;15.07;;;23.80;44.50;;;;;;5135799;27;20237;-61
2023/08/20 06:00:09;;;;;;;16.83;15.73;;;23.80;43.90;;;;;;5135498;27;20905;-61
2023/08/20 06:02:35;;;;;;;16.50;15.33;;;23.80;43.80;;;;;;5135536;27;20461;-60
2023/08/20 06:05:01;;;;;;;16.50;15.40;;;23.80;44.30;;;;;;5136168;27;20410;-60
2023/08/20 06:07:26;;;;;;;16.03;15.03;;;23.80;44.40;;;;;;5135828;27;20172;-61
2023/08/20 06:09:52;;;;;;;17.13;16.13;;;23.80;44.30;;;;;;5135430;27;20529;-62
2023/08/20 06:12:18;;;;;;;16.40;15.20;;;23.80;44.10;;;;;;5135579;27;20177;-62
2023/08/20 06:14:44;;;;;;;15.63;14.63;;;23.80;43.90;;;;;;5135489;27;20790;-61
2023/08/20 06:17:10;;;;;;;16.60;15.40;;;23.80;43.70;;;;;;5135550;27;20187;-62
2023/08/20 06:19:35;;;;;;;15.63;14.63;;;23.90;43.70;;;;;;5135145;27;20719;-62
2023/08/20 06:22:01;;;;;;;16.93;15.83;;;23.90;43.70;;;;;;5134317;27;20592;-60
2023/08/20 06:24:27;;;;;;;17.67;16.30;;;23.90;43.70;;;;;;5149683;27;20256;-59
2023/08/20 06:26:52;;;;;;;15.90;14.80;;;23.90;43.70;;;;;;5134902;27;20887;-59
2023/08/20 06:29:18;;;;;;;16.67;15.47;;;24.00;44.50;;;;;;5134914;27;20183;-59
2023/08/20 06:31:44;;;;;;;16.90;15.77;;;24.00;43.80;;;;;;5134742;27;20222;-59
2023/08/20 06:34:09;;;;;;;15.97;14.90;;;24.10;43.90;;;;;;5132683;27;20390;-60
2023/08/20 06:36:35;;;;;;;16.73;15.37;;;24.10;43.90;;;;;;5138853;27;20216;-60
2023/08/20 06:39:01;;;;;;;16.43;14.93;;;24.10;43.90;;;;;;5143483;27;20204;-59
2023/08/20 06:41:27;;;;;;;16.63;15.53;;;24.20;44.00;;;;;;5152340;27;20464;-61
2023/08/20 06:43:53;;;;;;;16.20;14.90;;;24.30;43.80;;;;;;5143221;27;20422;-62
2023/08/20 06:46:18;;;;;;;16.13;15.13;;;24.30;43.60;;;;;;5134911;27;20176;-62
2023/08/20 06:48:44;;;;;;;16.67;15.37;;;24.30;43.60;;;;;;5134204;27;20331;-62
2023/08/20 06:51:15;;;;;;;16.70;15.70;;;24.40;43.50;;;;;;5134623;27;20184;-63
2023/08/20 06:53:41;;;;;;;15.97;14.87;;;24.50;43.30;;;;;;5134410;27;20556;-62
2023/08/20 06:56:08;;;;;;;18.17;16.33;;;24.50;43.10;;;;;;5134872;27;20458;-61
2023/08/20 06:58:34;;;;;;;16.60;15.50;;;24.60;42.90;;;;;;5134247;27;20464;-61
2023/08/20 07:01:06;;;;;;;16.53;15.33;;;24.60;42.60;;;;;;5134995;27;20753;-61
2023/08/20 07:03:40;;;;;;;15.43;14.47;;;24.70;42.70;;;;;;5134806;27;20485;-59
2023/08/20 07:06:09;;;;;;;16.53;15.43;;;24.70;42.80;;;;;;5134724;27;20783;-61
2023/08/20 07:08:35;;;;;;;18.43;16.93;;;24.80;42.80;;;;;;5134672;27;20437;-63
2023/08/20 07:11:00;;;;;;;16.03;14.90;;;24.80;42.30;;;;;;5134678;27;20421;-62
2023/08/20 07:13:26;;;;;;;17.23;15.87;;;24.90;41.20;;;;;;5134175;27;20402;-62
2023/08/20 07:15:52;;;;;;;18.00;16.33;;;24.90;41.10;;;;;;5133807;27;20607;-59
2023/08/20 07:18:17;;;;;;;17.53;15.83;;;25.00;40.70;;;;;;5132441;27;20172;-59
2023/08/20 07:20:43;;;;;;;18.53;16.93;;;25.00;40.70;;;;;;5131895;27;20185;-59
2023/08/20 07:23:10;;;;;;;16.80;15.60;;;25.00;40.70;;;;;;5132324;27;20213;-59
2023/08/20 07:25:40;;;;;;;16.30;15.10;;;25.10;40.70;;;;;;5131842;27;20498;-59
2023/08/20 07:28:08;;;;;;;14.53;13.40;;;25.10;40.60;;;;;;5131304;27;20424;-59
2023/08/20 07:30:34;;;;;;;14.70;13.60;;;25.20;40.40;;;;;;5130690;27;20425;-61
2023/08/20 07:33:00;;;;;;;17.10;15.77;;;25.20;40.40;;;;;;5135520;27;20423;-62
2023/08/20 07:35:25;;;;;;;15.90;14.90;;;25.20;40.50;;;;;;5136093;27;20461;-62
2023/08/20 07:37:51;;;;;;;15.97;14.97;;;25.20;40.30;;;;;;5136366;27;20560;-62
2023/08/20 07:40:17;;;;;;;17.00;15.80;;;25.30;40.20;;;;;;5136990;27;20176;-62
2023/08/20 07:42:43;;;;;;;13.43;12.40;;;25.40;40.10;;;;;;5155554;27;20172;-62
2023/08/20 07:45:09;;;;;;;15.37;14.37;;;25.50;40.20;;;;;;5137486;27;20177;-62
2023/08/20 07:47:38;;;;;;;15.23;13.83;;;25.50;40.20;;;;;;5137413;27;20418;-62
2023/08/20 07:50:05;;;;;;;14.23;12.80;;;25.50;39.90;;;;;;5137386;27;20520;-61
2023/08/20 07:52:31;;;;;;;14.83;13.73;;;25.50;40.10;;;;;;5137259;27;20928;-61
2023/08/20 07:54:57;;;;;;;14.60;13.03;;;25.50;40.30;;;;;;5137297;27;20471;-62
2023/08/20 07:57:23;;;;;;;13.73;12.53;;;25.60;40.30;;;;;;5137463;27;20406;-61
2023/08/20 07:59:49;;;;;;;14.67;13.17;;;25.60;39.90;;;;;;5137137;27;20418;-61
2023/08/20 08:02:16;;;;;;;13.50;12.40;;;25.70;39.00;;;;;;5137349;27;20176;-61
2023/08/20 08:04:42;;;;;;;17.00;15.80;;;25.80;39.00;;;;;;5136991;27;20846;-62
2023/08/20 08:07:08;;;;;;;14.33;12.90;;;25.80;39.10;;;;;;5137297;27;20424;-61
2023/08/20 08:09:34;;;;;;;15.63;14.30;;;25.80;39.10;;;;;;5136771;27;20417;-62
2023/08/20 08:12:00;;;;;;;15.10;14.00;;;25.80;39.10;;;;;;5137266;27;20605;-62
2023/08/20 08:14:26;;;;;;;14.33;13.13;;;25.80;38.80;;;;;;5136945;27;20502;-62
2023/08/20 08:16:52;;;;;;;14.77;13.37;;;25.90;38.30;;;;;;5137009;27;20414;-62
2023/08/20 08:19:19;;;;;;;15.13;13.83;;;25.90;38.30;;;;;;5136860;27;20510;-61
2023/08/20 08:21:45;;;;;;;16.27;14.73;;;25.90;37.40;;;;;;5136970;27;20176;-62
2023/08/20 08:24:11;;;;;;;14.83;13.63;;;25.90;36.80;;;;;;5136606;27;20414;-62
2023/08/20 08:26:37;;;;;;;15.87;14.30;;;25.90;36.60;;;;;;5136639;27;20414;-59
2023/08/20 08:29:03;;;;;;;15.17;14.07;;;25.90;36.30;;;;;;5136642;27;20414;-59
2023/08/20 08:31:29;;;;;;;16.33;14.67;;;25.90;36.50;;;;;;5136738;27;20176;-59
2023/08/20 08:33:55;;;;;;;14.67;13.37;;;25.90;35.70;;;;;;5136723;27;20766;-61
2023/08/20 08:36:21;;;;;;;15.60;14.60;;;26.00;35.60;;;;;;5136699;27;20414;-62
2023/08/20 08:38:46;;;;;;;16.63;14.90;;;26.00;35.60;;;;;;5136324;27;20199;-59
2023/08/20 08:41:13;;;;;;;14.87;13.77;;;26.10;35.70;;;;;;5136574;27;20200;-59
2023/08/20 08:43:39;;;;;;;15.00;13.60;;;26.10;35.00;;;;;;5135291;27;20173;-62
2023/08/20 08:46:13;;;;;;;14.57;13.57;;;26.10;35.00;;;;;;5136433;27;20490;-61
2023/08/20 08:48:42;;;;;;;15.20;14.20;;;26.10;35.00;;;;;;5136398;27;20449;-61
2023/08/20 08:51:08;;;;;;;15.90;14.73;;;26.10;35.00;;;;;;5136556;27;20533;-58
2023/08/20 08:53:34;;;;;;;15.90;14.40;;;26.20;35.00;;;;;;5136239;27;20493;-61
2023/08/20 08:56:00;;;;;;;16.00;14.80;;;26.20;35.10;;;;;;5135835;27;20457;-61
2023/08/20 08:58:26;;;;;;;14.93;13.73;;;26.30;35.10;;;;;;5136067;27;20400;-62
2023/08/20 09:00:52;;;;;;;14.93;13.70;;;26.30;35.10;;;;;;5136115;27;20940;-63
2023/08/20 09:03:18;;;;;;;15.27;14.17;;;26.30;35.10;;;;;;5136329;27;20179;-62
2023/08/20 09:06:02;;;;;;;15.30;14.30;;;26.40;34.60;;;;;;5136013;27;20422;-62
2023/08/20 09:08:30;;;;;;;16.40;14.93;;;26.50;35.30;;;;;;5135772;27;20540;-62
2023/08/20 09:10:57;;;;;;;15.17;14.10;;;26.60;34.50;;;;;;5135992;27;20426;-62
2023/08/20 09:13:43;;;;;;;14.90;13.70;;;26.60;33.90;;;;;;5135922;27;20414;-60
2023/08/20 09:16:12;;;;;;;17.47;15.80;;;26.60;33.90;;;;;;5136334;27;20936;-61
2023/08/20 09:18:45;;;;;;;15.97;14.93;;;26.60;33.00;;;;;;5136131;27;20401;-61
2023/08/20 09:21:12;;;;;;;16.60;14.97;;;26.70;32.70;;;;;;5154881;27;20757;-61
2023/08/20 09:23:39;;;;;;;15.83;14.50;;;26.80;32.40;;;;;;5136044;27;20827;-61
2023/08/20 09:26:07;;;;;;;16.70;15.03;;;26.80;32.50;;;;;;5136274;27;20473;-61
2023/08/20 09:28:43;;;;;;;15.40;14.30;;;27.00;31.70;;;;;;5135621;27;20406;-60
2023/08/20 09:31:09;;;;;;;16.87;15.37;;;27.20;30.40;;;;;;5136272;27;20429;-59
2023/08/20 09:33:35;;;;;;;14.90;13.90;;;27.30;30.40;;;;;;5135534;27;20925;-60
2023/08/20 09:36:03;;;;;;;15.30;14.00;;;27.50;29.10;;;;;;5135494;27;20241;-59
2023/08/20 09:38:28;;;;;;;15.57;14.30;;;27.70;28.70;;;;;;5135435;27;20957;-61
2023/08/20 09:40:56;;;;;;;15.33;14.03;;;27.90;28.50;;;;;;5135948;27;20501;-59
2023/08/20 09:43:28;;;;;;;16.67;15.27;;;28.20;27.60;;;;;;5135982;27;20180;-61
2023/08/20 09:45:56;;;;;;;14.73;13.63;;;28.40;26.80;;;;;;5135766;27;20462;-62
2023/08/20 09:48:24;;;;;;;14.90;13.87;;;28.60;26.10;;;;;;5135783;27;20402;-61
2023/08/20 09:50:54;;;;;;;15.87;14.67;;;28.80;25.50;;;;;;5135620;27;20520;-61
2023/08/20 09:53:32;;;;;;;14.70;13.77;;;28.90;25.40;;;;;;5135914;27;20547;-62
2023/08/20 09:56:09;;;;;;;15.10;14.10;;;29.00;24.40;;;;;;5135234;27;20469;-61
2023/08/20 09:58:39;;;;;;;15.13;13.93;;;29.20;23.90;;;;;;5135447;27;20492;-63
2023/08/20 10:01:06;;;;;;;16.43;15.00;;;29.30;23.70;;;;;;5135399;27;20497;-62
2023/08/20 10:03:32;;;;;;;14.67;13.77;;;29.30;23.90;;;;;;5135583;27;20402;-61
2023/08/20 10:06:00;;;;;;;16.07;14.97;;;29.40;24.20;;;;;;5135280;27;20490;-62
2023/08/20 10:08:27;;;;;;;14.77;13.80;;;29.50;23.50;;;;;;5135235;27;20271;-61
2023/08/20 10:10:53;;;;;;;15.30;14.30;;;29.50;23.10;;;;;;5153574;27;20819;-60
2023/08/20 10:13:18;;;;;;;15.40;14.17;;;29.60;22.80;;;;;;5134716;27;20489;-59
2023/08/20 10:15:46;;;;;;;16.30;15.20;;;29.60;21.90;;;;;;5134458;27;20664;-61
2023/08/20 10:18:12;;;;;;;15.93;14.40;;;29.70;21.00;;;;;;5134421;27;20406;-61
2023/08/20 10:20:40;;;;;;;16.60;15.40;;;29.90;20.80;;;;;;5134605;27;20754;-61
2023/08/20 10:23:06;;;;;;;15.03;14.13;;;30.10;20.60;;;;;;5134503;27;20179;-60
2023/08/20 10:25:40;;;;;;;16.10;15.00;;;30.20;20.40;;;;;;5134326;27;20411;-59
2023/08/20 10:28:24;;;;;;;16.27;15.07;;;30.20;20.30;;;;;;5134396;27;20678;-59
2023/08/20 10:31:07;;;;;;;16.87;15.77;;;30.10;20.20;;;;;;5134716;27;20504;-60
2023/08/20 10:33:35;;;;;;;16.20;15.20;;;30.10;20.50;;;;;;5134167;27;20789;-64
2023/08/20 10:36:09;;;;;;;16.40;15.17;;;30.10;20.60;;;;;;5134602;27;20464;-59
2023/08/20 10:38:38;;;;;;;16.43;15.03;;;30.10;20.40;;;;;;5134489;27;20538;-60
2023/08/20 10:41:08;;;;;;;17.10;15.90;;;30.10;19.10;;;;;;5134902;27;20410;-60
2023/08/20 10:43:38;;;;;;;16.07;14.87;;;30.20;19.40;;;;;;5134478;27;20918;-61
2023/08/20 10:46:17;;;;;;;15.07;13.90;;;30.20;18.40;;;;;;5134377;27;20442;-61
2023/08/20 10:48:49;;;;;;;15.27;14.27;;;30.30;19.00;;;;;;5133983;27;21003;-59
2023/08/20 10:51:18;;;;;;;14.37;13.37;;;30.30;18.30;;;;;;5134483;27;20426;-59
2023/08/20 10:54:01;;;;;;;15.33;14.13;;;30.30;18.50;;;;;;5134075;27;20421;-59
2023/08/20 10:56:45;;;;;;;15.80;14.30;;;30.30;17.90;;;;;;5134300;27;20417;-60
2023/08/20 10:59:25;;;;;;;15.57;14.27;;;30.30;17.30;;;;;;5134035;27;20412;-60
2023/08/20 11:01:52;;;;;;;14.87;13.67;;;30.30;17.40;;;;;;5134186;27;20416;-61
2023/08/20 11:04:20;;;;;;;15.37;14.20;;;30.30;17.60;;;;;;5134413;27;20777;-59
2023/08/20 11:06:46;;;;;;;14.83;13.83;;;30.20;17.60;;;;;;5135830;27;20414;-61
2023/08/20 11:09:13;;;;;;;15.47;14.20;;;30.20;17.70;;;;;;5138168;27;20414;-62
2023/08/20 11:11:42;;;;;;;16.33;15.00;;;30.20;18.00;;;;;;5138398;27;20976;-61
2023/08/20 11:14:18;;;;;;;14.40;13.40;;;30.20;18.30;;;;;;5138105;27;20508;-62
2023/08/20 11:16:44;;;;;;;15.10;14.00;;;30.20;17.60;;;;;;5138044;27;20470;-60
2023/08/20 11:19:10;;;;;;;15.10;13.87;;;30.20;18.20;;;;;;5138231;27;20409;-59
2023/08/20 11:21:39;;;;;;;14.67;13.87;;;30.20;17.80;;;;;;5133889;27;20430;-59
2023/08/20 11:24:06;;;;;;;14.47;13.53;;;30.10;17.40;;;;;;5117493;27;20601;-59
2023/08/20 11:26:34;;;;;;;14.47;13.57;;;30.00;17.70;;;;;;5117077;27;20406;-59
2023/08/20 11:29:00;;;;;;;14.23;13.13;;;29.90;18.50;;;;;;5117367;27;20407;-60
2023/08/20 11:31:26;;;;;;;14.03;13.20;;;29.80;18.90;;;;;;5117123;27;20421;-61
2023/08/20 11:33:51;;;;;;;15.57;14.37;;;29.80;18.90;;;;;;5117155;27;20189;-61
2023/08/20 11:36:19;;;;;;;15.00;13.97;;;29.80;18.90;;;;;;5116966;27;20411;-61
2023/08/20 11:38:52;;;;;;;18.03;13.90;;;29.80;18.90;;;;;;5116698;27;20719;-61
2023/08/20 11:41:22;;;;;;;14.80;13.60;;;29.80;18.90;;;;;;5117068;27;20417;-61
2023/08/20 11:43:49;;;;;;;13.73;12.73;;;30.00;18.00;;;;;;5116966;27;20414;-60
2023/08/20 11:46:16;;;;;;;14.80;13.60;;;30.20;16.60;;;;;;5116888;27;20438;-59
2023/08/20 11:49:03;;;;;;;14.73;13.80;;;30.20;17.30;;;;;;5117001;27;20772;-60
2023/08/20 11:51:30;;;;;;;14.40;13.40;;;30.10;17.40;;;;;;5116712;27;20434;-60
2023/08/20 11:53:58;;;;;;;14.43;13.43;;;30.10;17.70;;;;;;5116898;27;20402;-61
2023/08/20 11:56:24;;;;;;;14.50;13.40;;;30.00;17.80;;;;;;5116903;27;20407;-59
2023/08/20 11:58:51;;;;;;;14.90;13.80;;;30.00;17.90;;;;;;5116663;27;20426;-60
2023/08/20 12:01:20;;;;;;;13.60;12.80;;;30.00;17.80;;;;;;5116861;27;20173;-60
2023/08/20 12:03:46;;;;;;;14.33;13.13;;;30.10;17.50;;;;;;5116343;27;20438;-60
2023/08/20 12:06:19;;;;;;;14.00;13.00;;;30.40;17.10;;;;;;5116525;27;20844;-60
2023/08/20 12:08:45;;;;;;;13.60;12.53;;;30.30;16.80;;;;;;5116113;27;20658;-60
2023/08/20 12:11:11;;;;;;;15.83;14.77;;;30.30;17.00;;;;;;5116379;27;20505;-61
2023/08/20 12:13:36;;;;;;;13.13;12.23;;;30.20;17.00;;;;;;5116263;27;20205;-60
2023/08/20 12:16:02;;;;;;;13.43;12.37;;;30.10;17.80;;;;;;5116271;27;20201;-60
2023/08/20 12:18:28;;;;;;;12.97;11.97;;;30.10;17.60;;;;;;5115679;27;20169;-60
2023/08/20 12:20:54;;;;;;;14.63;13.53;;;30.30;16.50;;;;;;5116220;27;20172;-60
2023/08/20 12:23:20;;;;;;;12.90;11.90;;;30.40;16.40;;;;;;5115863;27;20415;-60
2023/08/20 12:25:50;;;;;;;13.70;12.60;;;30.40;15.90;;;;;;5116116;27;20181;-60
2023/08/20 12:28:17;;;;;;;12.03;11.33;;;30.40;16.30;;;;;;5116122;27;20447;-60